N47BF KPVU-KBOI
Flight info
| Callsign | N47BF |
|---|---|
| Flight time | N/A |
| Altitude | 38000 |
| Route | TCH PATIO TWF BROPH SPUUD4 |
| Aircraft | C525/L-SDFGRWY/SB1 |
Departure
| Time | 2026-05-08 04:23 |
|---|---|
| Airport | Provo Municipal Airport (KPVU) |
Arrival
| Time | N/A |
|---|---|
| Airport | Boise Air Terminal/Gowen Field (KBOI) |
| Time | Latitude | Longitude | Altitude | Speed | Heading |
|---|---|---|---|---|---|
| 2026-05-08 04:05 | 40.21949 | -111.71984 | 4507 ft | 0 kts | 9° |
| 2026-05-08 04:18 | 40.21950 | -111.71985 | 4507 ft | 0 kts | 351° |
| 2026-05-08 04:18 | 40.21952 | -111.71998 | 4507 ft | 3 kts | 236° |
| 2026-05-08 04:18 | 40.21939 | -111.72016 | 4507 ft | 6 kts | 221° |
| 2026-05-08 04:19 | 40.21882 | -111.72018 | 4507 ft | 11 kts | 147° |
| 2026-05-08 04:19 | 40.21808 | -111.71953 | 4507 ft | 14 kts | 148° |
| 2026-05-08 04:19 | 40.21717 | -111.71871 | 4507 ft | 17 kts | 145° |
| 2026-05-08 04:19 | 40.21611 | -111.71777 | 4508 ft | 18 kts | 146° |
| 2026-05-08 04:20 | 40.21513 | -111.71691 | 4508 ft | 15 kts | 146° |
| 2026-05-08 04:20 | 40.21429 | -111.71614 | 4508 ft | 13 kts | 147° |
| 2026-05-08 04:20 | 40.21352 | -111.71548 | 4507 ft | 13 kts | 145° |
| 2026-05-08 04:20 | 40.21266 | -111.71473 | 4506 ft | 15 kts | 146° |
| 2026-05-08 04:21 | 40.21173 | -111.71391 | 4506 ft | 13 kts | 159° |
| 2026-05-08 04:21 | 40.21130 | -111.71417 | 4506 ft | 7 kts | 234° |
| 2026-05-08 04:21 | 40.21098 | -111.71482 | 4505 ft | 10 kts | 239° |
| 2026-05-08 04:21 | 40.21128 | -111.71563 | 4505 ft | 16 kts | 326° |
| 2026-05-08 04:22 | 40.21377 | -111.71787 | 4508 ft | 72 kts | 324° |
| 2026-05-08 04:22 | 40.21945 | -111.72289 | 4506 ft | 123 kts | 326° |
| 2026-05-08 04:22 | 40.22732 | -111.72993 | 4624 ft | 150 kts | 325° |
| 2026-05-08 04:22 | 40.23651 | -111.73804 | 4930 ft | 168 kts | 327° |
| 2026-05-08 04:23 | 40.24653 | -111.74693 | 5397 ft | 177 kts | 321° |
| 2026-05-08 04:23 | 40.25421 | -111.75865 | 5988 ft | 169 kts | 294° |
| 2026-05-08 04:23 | 40.25464 | -111.77362 | 6296 ft | 174 kts | 247° |
| 2026-05-08 04:23 | 40.24768 | -111.78768 | 6657 ft | 177 kts | 240° |
| 2026-05-08 04:24 | 40.24201 | -111.80283 | 7106 ft | 175 kts | 241° |
| 2026-05-08 04:24 | 40.23640 | -111.81798 | 7375 ft | 184 kts | 255° |
| 2026-05-08 04:24 | 40.23560 | -111.83463 | 7637 ft | 191 kts | 269° |
| 2026-05-08 04:24 | 40.23449 | -111.85215 | 8130 ft | 188 kts | 263° |
| 2026-05-08 04:25 | 40.23192 | -111.86832 | 8638 ft | 185 kts | 254° |
| 2026-05-08 04:25 | 40.22776 | -111.88472 | 8960 ft | 193 kts | 251° |
| 2026-05-08 04:25 | 40.22353 | -111.90103 | 9586 ft | 185 kts | 251° |
| 2026-05-08 04:25 | 40.21950 | -111.91735 | 9860 ft | 190 kts | 252° |
| 2026-05-08 04:26 | 40.21576 | -111.93435 | 10163 ft | 192 kts | 255° |
| 2026-05-08 04:26 | 40.21264 | -111.95104 | 10493 ft | 191 kts | 257° |
| 2026-05-08 04:26 | 40.20950 | -111.96802 | 10777 ft | 192 kts | 255° |
| 2026-05-08 04:26 | 40.20586 | -111.98524 | 11118 ft | 192 kts | 254° |
| 2026-05-08 04:27 | 40.20174 | -112.00154 | 11513 ft | 187 kts | 253° |
| 2026-05-08 04:27 | 40.19762 | -112.01773 | 11833 ft | 186 kts | 256° |
| 2026-05-08 04:27 | 40.19414 | -112.03381 | 12181 ft | 182 kts | 262° |
| 2026-05-08 04:27 | 40.19304 | -112.04952 | 12691 ft | 166 kts | 283° |
| 2026-05-08 04:28 | 40.19844 | -112.06337 | 12665 ft | 183 kts | 317° |
| 2026-05-08 04:28 | 40.21118 | -112.06817 | 12553 ft | 219 kts | 6° |
| 2026-05-08 04:28 | 40.22524 | -112.05781 | 12315 ft | 240 kts | 38° |
| 2026-05-08 04:28 | 40.23566 | -112.04016 | 11939 ft | 251 kts | 51° |
| 2026-05-08 04:29 | 40.24398 | -112.02003 | 11628 ft | 253 kts | 59° |
| 2026-05-08 04:29 | 40.25119 | -111.99883 | 11270 ft | 254 kts | 62° |
| 2026-05-08 04:29 | 40.25791 | -111.97810 | 11250 ft | 239 kts | 62° |
| 2026-05-08 04:29 | 40.26440 | -111.95808 | 11107 ft | 232 kts | 61° |
| 2026-05-08 04:30 | 40.27051 | -111.93912 | 11067 ft | 223 kts | 62° |
| 2026-05-08 04:30 | 40.27589 | -111.92029 | 11001 ft | 220 kts | 68° |
| 2026-05-08 04:30 | 40.27737 | -111.90070 | 10935 ft | 216 kts | 82° |
| 2026-05-08 04:30 | 40.28051 | -111.88103 | 10328 ft | 228 kts | 68° |
| 2026-05-08 04:31 | 40.28612 | -111.86138 | 9856 ft | 234 kts | 61° |
| 2026-05-08 04:31 | 40.29355 | -111.84246 | 9287 ft | 234 kts | 59° |
| 2026-05-08 04:31 | 40.30126 | -111.82413 | 8568 ft | 224 kts | 57° |
| 2026-05-08 04:31 | 40.30442 | -111.80547 | 8049 ft | 201 kts | 98° |
| 2026-05-08 04:32 | 40.29693 | -111.79225 | 7446 ft | 184 kts | 148° |
| 2026-05-08 04:32 | 40.28684 | -111.78305 | 6785 ft | 173 kts | 144° |
| 2026-05-08 04:32 | 40.27741 | -111.77431 | 6245 ft | 162 kts | 146° |